Ride Results

Spring Mt Challenge (07-10-2012)
Ride distance: 80.0 km

Outcomes - Spring Mt Challenge (07-10-2012)
Division No. of Entries Retired / DNE Completed Withdrawn Ineligible V/O Percentage Completed
HW 12 - 9 1 - 2 75.00%
MW 31 - 24 1 - 6 77.42%
LW 17 - 15 1 - 1 88.24%
JN 25 - 21 2 - 2 84.00%
Totals 85 - 69 5 - 11 81.18%
Results - Spring Mt Challenge (07-10-2012)
No. Rider Horse Place Time Leg Speeds Total
Km/Hr
H/R bpm
Heavyweight
11 Gregg Fields Dunwingeri Aquila 1 (BC) 5:07:00 18.1, 13.7 15.64 34, 45, 51 (Avg:48)
58 Matthew Gadsby Kalkadoon Alfresco 2 5:24:00 15.8, 13.8 14.81 35, 40, 49 (Avg:44)
14 Shane Butler Credo Summer Rain 3 5:53:00 15.4, 12.1 13.60 40, 46, 45 (Avg:45)
33 Jake Gray Sandine Diesel 3 5:53:00 15.4, 12.1 13.60 34, 45, 49 (Avg:47)
6 Paul Fitzgerald Lanamere Dolce 5 6:00:00 14.7, 12.1 13.33 36, 43, 41 (Avg:42)
20 Toni Tatham Celestial Storm 6 6:41:00 12.5, 11.4 11.97 39, 42, 43 (Avg:42)
16 Ricky Petersen Jezabelle Golden Shimmer 7 7:18:00 13.4, 9.2 10.96 39, 45, 42 (Avg:43)
78 Steph Tulk Splendacrest Zafire 8 7:28:01 12.5, 9.3 10.71 33, 43, 57 (Avg:50)
37 Craig Bond Bellarine Spechelle 9 8:17:00 11.1, 8.5 9.66 31, 41, 47 (Avg:44)
32 Maurice Gray PK Elmo Lame L2 0:00:00 13.4, 9.2 - 34, 44, 52 (Avg:48)
84 Gavin Bartlett Cingala Royalle Lame L1 0:00:00 13.0 - 37, 46 (Avg:46)
82 Jane Davidson Splitters Creek Titan Withdrawn L1 0:00:00 - - 38, 41 (Avg:41)
Middleweight
69 Natasha Willemse Cheraz Silver Pocket 1 (BC) 4:01:00 19.8, 19.9 19.92 35, 39, 44 (Avg:41)
12 Jeni Martin Jen Mar Ma Aj Mala 2 4:45:00 18.7, 15.2 16.84 38, 42, 48 (Avg:45)
24 Stephen Gray Sultan 3 4:58:00 18.3, 14.3 16.11 40, 50, 58 (Avg:54)
36 Charmaine Bond Bonds Addiction 4 5:00:00 17.5, 14.7 16.00 39, 48, 51 (Avg:49)
1 Wayne McKinnon Dunbar Lexus 5 5:04:00 17.7, 14.2 15.79 35, 38, 48 (Avg:43)
22 Cora Becker Bones the Wizard 6 5:11:00 17.0, 14.1 15.43 29, 43, 40 (Avg:41)
31 Matthew Sample Brookleigh Ricardo 7 5:16:00 16.2, 14.2 15.19 33, 35, 45 (Avg:40)
57 Dean Chamberlain Kalkadoon Vienna 8 5:24:00 15.8, 13.8 14.81 35, 39, 41 (Avg:40)
7 Caroline Fitzgerald Lanamere Femmara 9 6:00:00 14.7, 12.1 13.33 37, 44, 46 (Avg:45)
8 Angela Head Lanamere Roulette 9 6:00:00 14.7, 12.1 13.33 34, 42, 48 (Avg:45)
3 Tony Bateman Cheval Arabe Daybu 11 6:05:00 14.2, 12.2 13.15 34, 43, 43 (Avg:43)
30 Akhmed Pshunov Matta Mia Su Al 12 6:06:00 12.9, 13.2 13.11 37, 43, 50 (Avg:46)
43 Billie Barron Virgil 13 6:11:00 13.4, 12.4 12.94 32, 38, 49 (Avg:43)
79 Camille Champagne Meltharina Melina 14 6:14:00 12.4, 13.1 12.83 40, 48, 48 (Avg:48)
4 Kylie Reid Toxic Affair 15 6:15:00 13.2, 12.3 12.80 39, 43, 47 (Avg:45)
25 Angela Waldock Gundabah Fair Lady 15 6:15:00 12.9, 12.6 12.80 37, 46, 59 (Avg:52)
13 Laura Axsentieff Fox Brush Custom Design 17 6:29:00 12.8, 11.8 12.34 41, 46, 51 (Avg:48)
2 Christal Rizk Namac Crak A Jak 18 6:31:00 13.0, 11.5 12.28 30, 47, 58 (Avg:52)
17 Sarah Love Fun 4 Us 19 6:46:00 12.3, 11.3 11.82 34, 40, 52 (Avg:46)
27 Leeanne Morgan Zanes Shadow 20 7:19:00 12.1, 9.9 10.93 31, 39, 59 (Avg:49)
70 Elsie Newsome Mimosa Ellira 21 7:36:00 11.2, 9.8 10.53 42, 49, 58 (Avg:53)
75 Renae Kuhn Moomba Lodge Bayley 22 7:38:00 11.1, 9.9 10.48 41, 48, 50 (Avg:49)
56 Stephanie Malmborg Dunbar Coco Chanel 23 7:42:00 12.3, 8.9 10.39 35, 38, 43 (Avg:40)
61 Jacqui Emery Haaris 24 8:37:00 9.7, 8.8 9.28 38, 41, 44 (Avg:42)
50 Kay Barbeler Carona Heart Rate L2 0:00:00 13.2, 11.4 - 36, 41, 68 (Avg:54)
76 Gerard Bou Splendacrest Perfection Heart Rate L2 0:00:00 13.0, 11.5 - 30, 44, 62 (Avg:53)
77 Ken Moir Cameo Helmzman Lame L2 0:00:00 18.1, 14.4 - 35, 44, 47 (Avg:45)
41 Susan Bugden Elfar Saffire Lame L1 0:00:00 12.3 - 34, 36 (Avg:36)
39 Sasha Laws-King Heathfield's Sheisha Lame L1 0:00:00 16.5 - 34, 38 (Avg:38)
68 Johann Willemse Gums Kawielie Lame L1 0:00:00 15.4 - 36, 51 (Avg:51)
52 Peter Pike Aloha Sashar Withdrawn P/R 0:00:00 - - 34
Lightweight
63 Judy Battams Sommariva Malik 1 4:45:00 18.3, 15.5 16.84 39, 42, 48 (Avg:45)
10 Karen Fields Ra-Anji Firefly 2 (BC) 5:07:00 18.1, 13.7 15.64 30, 39, 48 (Avg:43)
15 Bianca Porter Phox KEI 3 5:15:00 17.5, 13.4 15.24 39, 45, 48 (Avg:46)
9 Jocelyn Barnes Trinity 4 5:28:00 15.0, 14.2 14.63 33, 44, 46 (Avg:45)
35 Ruth White Alamo Minelli 5 5:37:00 14.6, 13.8 14.24 27, 43, 53 (Avg:48)
66 Amanda Powell Summit Park Raz 6 6:12:00 13.7, 12.1 12.90 27, 35, 45 (Avg:40)
26 Fiona Fenech Bellarine Gracie 7 6:15:00 12.9, 12.6 12.80 33, 42, 58 (Avg:50)
64 Erin Krahnen Glengannon Azazael 8 6:23:00 13.1, 11.9 12.53 38, 44, 49 (Avg:46)
73 Cathy Ferguson Ramalea Nick 9 6:26:00 13.3, 11.6 12.44 33, 38, 46 (Avg:42)
72 Clare Fleming Picnic Park Desert Dancer 9 6:26:00 13.3, 11.6 12.44 42, 44, 47 (Avg:45)
34 Kaylea Maher Jakim Revenge 11 6:31:00 12.1, 12.3 12.28 39, 39, 44 (Avg:41)
38 Jan Tyrrell Steel Poppy Regent 12 6:34:00 13.3, 11.2 12.18 43, 42, 43 (Avg:42)
67 Natashja Burton Alamos Zarcos 13 6:38:00 12.9, 11.3 12.06 38, 45, 60 (Avg:52)
40 Christine Christie Sateen 14 6:46:00 12.3, 11.3 11.82 36, 41, 50 (Avg:45)
83 Kelly Jol Natham Park A Dzhamah 15 7:21:00 11.0, 10.7 10.88 33, 39, 43 (Avg:41)
21 Karen Brown Lily Lame L1 0:00:00 12.6 - 35, 42 (Avg:42)
53 Amanda Phillips Without A Doubt Withdrawn P/R 0:00:00 - - 35
Junior
23 Anu Woodruff-Becker Teddy 1 5:11:00 17.0, 14.1 15.43 28, 40, 43 (Avg:41)
19 David Anderson Jnr Arabiana Banama 2 5:16:00 13.2, 17.7 15.19 36, 46, 60 (Avg:53)
55 Hannah Terry Sasam 3 (BC) 5:16:10 16.9, 13.7 15.18 33, 44, 48 (Avg:46)
54 Jessica Terry Dardanga Fingal 4 5:17:00 16.9, 13.7 15.14 33, 43, 48 (Avg:45)
80 Jade Vergis Meltharina Maralyc 4 5:17:00 13.9, 16.5 15.14 32, 41, 48 (Avg:44)
44 Ellie Kreicbergs Woomera Thor 6 5:29:00 15.9, 13.4 14.59 34, 42, 48 (Avg:45)
74 Tayla Hadzi Ausden Prince Mahal 7 5:29:01 15.9, 13.4 14.59 30, 36, 50 (Avg:43)
42 Sam Brooker Hirstglen Lonestar 8 6:23:00 13.1, 11.9 12.53 39, 41, 47 (Avg:44)
65 Colleen Krahnen Moondarra Diannah 8 6:23:00 13.1, 11.9 12.53 31, 45, 60 (Avg:52)
28 Matilda Hose Anglesea Tasman 10 6:36:00 13.1, 11.2 12.12 36, 44, 41 (Avg:42)
29 Sarah Huddleston Ceona Citation 10 6:36:00 13.1, 11.2 12.12 37, 41, 50 (Avg:45)
59 Jess Fuhlbohm Marja Kaz 12 6:39:00 13.1, 11.1 12.03 35, 40, 42 (Avg:41)
51 Jordan Baker The Big Dipper 13 7:03:00 12.9, 10.0 11.35 40, 42, 52 (Avg:47)
45 Kenzie Roberton Sadaf Wa Azeem 14 7:28:03 12.5, 9.3 10.71 42, 45, 55 (Avg:50)
47 Tahlia Franke Jezabelle Oceans Of Fire 15 7:28:04 12.5, 9.3 10.71 34, 45, 54 (Avg:49)
49 Jess Kuhn Tigerlilly 16 7:38:00 11.1, 9.9 10.48 43, 44, 42 (Avg:43)
46 Meg Vinson Melcot Bella 16 7:38:00 11.1, 9.9 10.48 33, 36, 45 (Avg:40)
48 Alissa Woods Bacchante Silver Lace 16 7:38:00 11.1, 9.9 10.48 33, 43, 48 (Avg:45)
62 Amber Weale Cirrus 19 7:42:00 12.3, 8.9 10.39 35, 38, 40 (Avg:39)
71 Kyia-Jane Bodsworth Poets Corner Bataan 20 8:06:00 11.2, 8.7 9.88 37, 38, 42 (Avg:40)
60 Megan Stehouwer River Oak Willoshey 21 8:37:00 9.7, 8.8 9.28 34, 38, 43 (Avg:40)
85 Rilene Heydenreich Glenewan Spring Lame L2 0:00:00 12.5, 9.3 - 39, 46, 44 (Avg:45)
5 Emily-Jade Begley Shinto Withdrawn L1 0:00:00 - - 31, 40 (Avg:40)
81 Pandora Bevan Tamih Withdrawn L1 0:00:00 - - 44, 38 (Avg:38)
18 Brooke Marshall Milady Mercury Lame P/R 0:00:00 - - 35